Tuesday, January 27, 2015
14:25 UTC
  |  Log In   |  Register Free
Airport Search:

Pedro Bay Airport
(4K0)

Pedro Bay Airport Diagram
No Airport Diagram Available

FAA data valid effective January 08, 2015 - March 05, 2015 (unless otherwise noted).

 
 
 
 
 
 
 
 
 
 
 
 
 
 

Current Aviation Weather for Pedro Bay Airport (4K0)

METAR data is unavailable for 4K0. The nearest METAR location is at PAIL (23.7 nm SW from 4K0).

The most recent METAR observation for PAIL was updated at: 1420
METAR Summary (Translated METAR)
PAIL
271353Z AUTO 00000KT 10SM SCT022 OVC029 M06/M09 A2983 RMK AO2 SLP107 T10611094 TSNO
(23.7 nm SW from 4K0)
PAIL
271353Z AUTO 00000KT 10SM SCT022 OVC029 M06/M09 A2983 RMK AO2 SLP107 T10611094 TSNO
(23.7 nm SW from 4K0)
TAF Summary (Translated TAF)
PAIL
271138Z 2712/2812 01007KT P6SM -SN OVC030 FM271700 01006KT P6SM SCT040 BKN060
PAIL
271138Z 2712/2812 01007KT P6SM -SN OVC030 FM271700 01006KT P6SM SCT040 BKN060
  Airport Weather Conditions for 4K0

Current weather conditions are
not available for 4K0


The nearest NOAA weather station
is at ILI, (23.7 nm SW from 4K0)
  
 Current Weather at ILI
21° F
Overcast
North winds at 0.0 mph
ILI NOAA Radar

Pressure: 29.83 in
Humidity: 78%
Wind: Calm
Dew Point: 15.1°F
Visibility: 10.00 mi


Airport Weather Forecast for 4K0

Translated METAR and TAF for PAIL
Translated METAR for PAIL (1425 UTC 27 January 2015)
found at http://aviationweather.gov/adds/metars/
 
METAR text: PAIL 271353Z AUTO 00000KT 10SM SCT022 OVC029 M06/M09 A2983 RMK AO2 SLP107 T10611094 TSNO
Conditions at: PAIL (ILIAMNA , AK, US) observed 1353 UTC 27 January 2015
Temperature: -6.1°C (21°F)
Dewpoint: -9.4°C (15°F) [RH = 77%]
Pressure (altimeter): 29.83 inches Hg (1010.2 mb)
[Sea-level pressure: 1010.7 mb]
Winds: calm
Visibility: 10 or more miles (16+ km)
Ceiling: 2900 feet AGL
Clouds: scattered clouds at 2200 feet AGL
overcast cloud deck at 2900 feet AGL
Weather: automated observation with no human augmentation;
there may or may not be significant weather present at this time
Translated TAF for PAIL
Forecast for: PAIL (ILIAMNA , AK, US)
TAF Text: PAIL 271138Z 2712/2812 01007KT P6SM -SN OVC030
Forecast period: 1200 to 1700 UTC 27 January 2015
Forecast type: FROM: standard forecast or significant change
Winds: from the N (10 degrees) at 8 MPH (7 knots; 3.6 m/s)
Visibility: 6 or more miles (10+ km)
Ceiling: 3000 feet AGL
Clouds: overcast cloud deck at 3000 feet AGL
Weather: -SN  (light snow)
TAF Text: FM271700 01006KT P6SM SCT040 BKN060
Forecast period: 1700 UTC 27 January 2015 to 1200 UTC 28 January 2015
Forecast type: FROM: standard forecast or significant change
Winds: from the N (10 degrees) at 7 MPH (6 knots; 3.1 m/s)
Visibility: 6 or more miles (10+ km)
Ceiling: 6000 feet AGL
Clouds: scattered clouds at 4000 feet AGL
broken clouds at 6000 feet AGL
Weather: no significant weather forecast for this period

Find All Airport Services Find A Hotel Find A Rental Car Find A Golf Course Find A Restaurant $100 Hamburger



FBO's on the Field
FBO Company Facility Photos Services Transportation Aviation Fuel Prices: Prices include tax
Catering Weather Repair Courtesy Rental Type 100LL JetA JetA+ MOGAS 8087
 
Add another FBO Facility Photos Catering Weather Repair Courtesy Rental Type 100LL JetA JetA+ MOGAS 8087
Services Transportation Aviation Fuel Prices: Prices include tax
There are no FBO's currently reporting fuel at 4K0. List your FBO now


model-print
model-print
model-print
model-print